Mojave, CA (93501)

4:32 PM PDT on October 25, 2014 (GMT -0700)
Mojave | Change Station
CLOSE
Current Station
Airport
Location: Mojave,
Elevation: 2785 ft
Nearby Weather Stations

Elev 2785 ft 35.06 °N, 118.15 °W | Updated 17 minutes ago

Clear
Clear
77 °F
Feels Like 77 °F
N
14
Wind Variable Wind from West
Gusts 30 mph

Today
High -- | Low -- °F
--% Chance of Precip.
Yesterday
High -- | Low -- °F
Precip. -- in
7:07 AM 6:05 PM
Waxing Crescent, 5% visible
Pressure 30.04 in
Visibility 10.0 miles
Clouds Clear
Dew Point 37 °F
Humidity 24%
Rainfall 0.00 in
Snow Depth Not available.
UV 1 out of 12
Pollen 4.00 out of 12
Ozone Good
Flu Activity Sporadic
METAR KMHV 252315Z AUTO 27012G26KT 220V290 10SM CLR 25/03 A3004 RMK AO1

More Conditions Fewer Conditions

Pressure 30.04 in
Visibility 10.0 miles
Clouds Clear
Dew Point 37 °F
Humidity 24%
Rainfall 0.00 in
Snow Depth Not available.
UV 1 out of 12
Pollen 4.00 out of 12
Ozone Good
Flu Activity Sporadic
METAR KMHV 252315Z AUTO 27012G26KT 220V290 10SM CLR 25/03 A3004 RMK AO1

More Conditions Fewer Conditions

10-Day Weather Forecast

Almanac

Astronomy

Oct. 25, 2014 Rise Set
Actual Time 7:07 AM PDT 6:05 PM PDT
Civil Twilight 6:41 AM PDT 6:31 PM PDT
Nautical Twilight 6:11 AM PDT 7:01 PM PDT
Astronomical Twilight 5:42 AM PDT 7:30 PM PDT
Moon 8:48 AM PDT 7:35 PM PDT
Length of Visible Light 11h 49m
Length of Day
10h 58m
Tomorrow will be 2m 1s shorter.
Waxing Crescent, 5% of the Moon is Illuminated
Today
Waxing Crescent
Oct 30
First Quarter
Nov 6
Full
Nov 14
Last Quarter
Nov 22
New

Today's Extremes

State Highs State Lows

Community

WunderPhotos

Upload Photos

1,765,034 photos uploaded!

Nearby

Air Quality

  Air Quality AQ Index Pollutant
Yesterday Good
OZONE
Current Good
OZONE
Sunday Good
PM10
Sunday Moderate
OZONE
Sunday Good
CO
Sunday Good
NO2

Snow Depth

Station Depth Elevation
Virginia Lakes Ridge 0 in 9200 ft
Leavitt Lake 0 in 9400 ft
Leavitt Meadows 0 in 7200 ft
Sonora Pass 0 in 8800 ft
Summit Meadow 0 in 9122 ft

Earthquake Activity

City Distance Mag. Time & Date
Barstow, California 82 miles 2.9 2:48 PM PDT
2014-10-25
Lone Pine, California 77 miles 3.6 7:31 AM PDT
2014-10-25
Running Springs, California 82 miles 3.1 4:07 AM PDT
2014-10-25
Brea, California 77 miles 2.9 3:35 PM PDT
2014-10-23
Minimum magnitude displayed is 2.5.

Coastal Water Temperatures

Place Temperature
No Stations Reporting

Nearby Weather Stations